sensor_id;sensor_type;location;lat;lon;timestamp;P1;durP1;ratioP1;P2;durP2;ratioP2
33266;SDS011;19638;49.080;11.896;2023-02-28T00:03:24;9.17;;;4.97;;
33266;SDS011;19638;49.080;11.896;2023-02-28T00:07:27;10.07;;;5.37;;
33266;SDS011;19638;49.080;11.896;2023-02-28T00:11:34;7.93;;;3.90;;
33266;SDS011;19638;49.080;11.896;2023-02-28T00:15:42;9.40;;;5.43;;
33266;SDS011;19638;49.080;11.896;2023-02-28T00:19:47;6.60;;;4.50;;
33266;SDS011;19638;49.080;11.896;2023-02-28T00:23:51;7.80;;;4.67;;
33266;SDS011;19638;49.080;11.896;2023-02-28T00:27:56;8.83;;;4.93;;
33266;SDS011;19638;49.080;11.896;2023-02-28T00:31:59;7.30;;;3.83;;
33266;SDS011;19638;49.080;11.896;2023-02-28T00:36:03;10.53;;;5.20;;
33266;SDS011;19638;49.080;11.896;2023-02-28T00:40:11;7.93;;;4.53;;
33266;SDS011;19638;49.080;11.896;2023-02-28T00:44:15;11.40;;;5.57;;
33266;SDS011;19638;49.080;11.896;2023-02-28T00:48:19;9.10;;;5.10;;
33266;SDS011;19638;49.080;11.896;2023-02-28T00:52:22;7.83;;;4.57;;
33266;SDS011;19638;49.080;11.896;2023-02-28T00:56:25;9.63;;;5.67;;
33266;SDS011;19638;49.080;11.896;2023-02-28T01:00:32;8.50;;;4.77;;
33266;SDS011;19638;49.080;11.896;2023-02-28T01:04:36;6.13;;;4.03;;
33266;SDS011;19638;49.080;11.896;2023-02-28T01:08:41;7.90;;;4.97;;
33266;SDS011;19638;49.080;11.896;2023-02-28T01:12:44;11.60;;;5.40;;
33266;SDS011;19638;49.080;11.896;2023-02-28T01:16:51;7.63;;;3.97;;
33266;SDS011;19638;49.080;11.896;2023-02-28T01:20:54;10.83;;;5.27;;
33266;SDS011;19638;49.080;11.896;2023-02-28T01:25:05;10.37;;;5.60;;
33266;SDS011;19638;49.080;11.896;2023-02-28T01:29:09;6.53;;;5.20;;
33266;SDS011;19638;49.080;11.896;2023-02-28T01:33:16;8.73;;;4.23;;
33266;SDS011;19638;49.080;11.896;2023-02-28T01:37:22;13.13;;;6.17;;
33266;SDS011;19638;49.080;11.896;2023-02-28T01:41:28;6.80;;;5.00;;
33266;SDS011;19638;49.080;11.896;2023-02-28T01:45:35;6.63;;;4.27;;
33266;SDS011;19638;49.080;11.896;2023-02-28T01:49:42;10.70;;;5.77;;
33266;SDS011;19638;49.080;11.896;2023-02-28T01:53:46;9.30;;;5.37;;
33266;SDS011;19638;49.080;11.896;2023-02-28T01:57:55;3.80;;;3.33;;
33266;SDS011;19638;49.080;11.896;2023-02-28T02:02:04;11.83;;;5.50;;
33266;SDS011;19638;49.080;11.896;2023-02-28T02:06:14;8.60;;;4.40;;
33266;SDS011;19638;49.080;11.896;2023-02-28T02:10:17;5.60;;;3.40;;
33266;SDS011;19638;49.080;11.896;2023-02-28T02:18:57;8.33;;;5.00;;
33266;SDS011;19638;49.080;11.896;2023-02-28T02:32:19;10.13;;;5.73;;
33266;SDS011;19638;49.080;11.896;2023-02-28T02:37:02;13.20;;;6.00;;
33266;SDS011;19638;49.080;11.896;2023-02-28T02:41:14;12.40;;;6.37;;
33266;SDS011;19638;49.080;11.896;2023-02-28T02:45:23;12.43;;;6.70;;
33266;SDS011;19638;49.080;11.896;2023-02-28T02:49:31;13.00;;;5.53;;
33266;SDS011;19638;49.080;11.896;2023-02-28T02:53:40;11.57;;;5.93;;
33266;SDS011;19638;49.080;11.896;2023-02-28T02:57:53;12.90;;;6.47;;
33266;SDS011;19638;49.080;11.896;2023-02-28T03:01:59;7.57;;;5.00;;
33266;SDS011;19638;49.080;11.896;2023-02-28T03:06:08;9.20;;;5.20;;
33266;SDS011;19638;49.080;11.896;2023-02-28T03:10:37;11.67;;;6.73;;
33266;SDS011;19638;49.080;11.896;2023-02-28T03:14:44;13.90;;;6.23;;
33266;SDS011;19638;49.080;11.896;2023-02-28T03:19:01;8.13;;;5.13;;
33266;SDS011;19638;49.080;11.896;2023-02-28T03:23:15;10.60;;;6.07;;
33266;SDS011;19638;49.080;11.896;2023-02-28T03:27:24;12.13;;;6.07;;
33266;SDS011;19638;49.080;11.896;2023-02-28T03:31:32;13.43;;;7.27;;
33266;SDS011;19638;49.080;11.896;2023-02-28T03:35:40;13.20;;;8.03;;
33266;SDS011;19638;49.080;11.896;2023-02-28T03:39:49;7.90;;;5.43;;
33266;SDS011;19638;49.080;11.896;2023-02-28T03:43:59;11.33;;;6.27;;
33266;SDS011;19638;49.080;11.896;2023-02-28T03:48:07;13.33;;;6.97;;
33266;SDS011;19638;49.080;11.896;2023-02-28T03:52:14;17.77;;;8.53;;
33266;SDS011;19638;49.080;11.896;2023-02-28T03:56:26;14.10;;;6.57;;
33266;SDS011;19638;49.080;11.896;2023-02-28T04:00:37;12.83;;;5.93;;
33266;SDS011;19638;49.080;11.896;2023-02-28T04:04:46;16.63;;;8.80;;
33266;SDS011;19638;49.080;11.896;2023-02-28T04:08:50;12.87;;;6.90;;
33266;SDS011;19638;49.080;11.896;2023-02-28T04:12:58;18.00;;;8.47;;
33266;SDS011;19638;49.080;11.896;2023-02-28T04:17:02;11.50;;;6.87;;
33266;SDS011;19638;49.080;11.896;2023-02-28T04:21:05;17.37;;;7.87;;
33266;SDS011;19638;49.080;11.896;2023-02-28T04:25:08;13.50;;;6.70;;
33266;SDS011;19638;49.080;11.896;2023-02-28T04:29:14;18.90;;;11.13;;
33266;SDS011;19638;49.080;11.896;2023-02-28T04:33:24;19.10;;;9.47;;
33266;SDS011;19638;49.080;11.896;2023-02-28T04:37:30;17.30;;;8.73;;
33266;SDS011;19638;49.080;11.896;2023-02-28T04:41:36;19.30;;;9.73;;
33266;SDS011;19638;49.080;11.896;2023-02-28T04:45:43;20.97;;;10.37;;
33266;SDS011;19638;49.080;11.896;2023-02-28T04:49:51;12.13;;;6.93;;
33266;SDS011;19638;49.080;11.896;2023-02-28T04:53:55;14.93;;;7.47;;
33266;SDS011;19638;49.080;11.896;2023-02-28T04:57:59;16.57;;;10.23;;
33266;SDS011;19638;49.080;11.896;2023-02-28T05:02:04;14.17;;;7.97;;
33266;SDS011;19638;49.080;11.896;2023-02-28T05:06:13;18.77;;;9.27;;
33266;SDS011;19638;49.080;11.896;2023-02-28T05:10:17;15.97;;;9.23;;
33266;SDS011;19638;49.080;11.896;2023-02-28T05:14:22;19.80;;;9.80;;
33266;SDS011;19638;49.080;11.896;2023-02-28T05:18:27;16.97;;;8.63;;
33266;SDS011;19638;49.080;11.896;2023-02-28T05:22:32;15.27;;;8.83;;
33266;SDS011;19638;49.080;11.896;2023-02-28T05:26:35;18.47;;;9.20;;
33266;SDS011;19638;49.080;11.896;2023-02-28T05:30:40;20.17;;;10.03;;
33266;SDS011;19638;49.080;11.896;2023-02-28T05:34:49;23.53;;;10.10;;
33266;SDS011;19638;49.080;11.896;2023-02-28T05:38:55;18.17;;;9.73;;
33266;SDS011;19638;49.080;11.896;2023-02-28T05:42:58;17.30;;;9.33;;
33266;SDS011;19638;49.080;11.896;2023-02-28T05:47:02;23.17;;;10.47;;
33266;SDS011;19638;49.080;11.896;2023-02-28T05:51:07;15.83;;;8.17;;
33266;SDS011;19638;49.080;11.896;2023-02-28T05:55:13;21.43;;;9.13;;
33266;SDS011;19638;49.080;11.896;2023-02-28T05:59:16;15.63;;;9.43;;
33266;SDS011;19638;49.080;11.896;2023-02-28T06:03:19;22.47;;;11.37;;
33266;SDS011;19638;49.080;11.896;2023-02-28T06:07:22;15.70;;;7.97;;
33266;SDS011;19638;49.080;11.896;2023-02-28T06:11:27;21.47;;;9.97;;
33266;SDS011;19638;49.080;11.896;2023-02-28T06:15:33;23.60;;;11.17;;
33266;SDS011;19638;49.080;11.896;2023-02-28T06:19:36;20.80;;;10.07;;
33266;SDS011;19638;49.080;11.896;2023-02-28T06:23:42;19.87;;;9.30;;
33266;SDS011;19638;49.080;11.896;2023-02-28T06:27:47;19.47;;;9.43;;
33266;SDS011;19638;49.080;11.896;2023-02-28T06:31:50;17.20;;;8.77;;
33266;SDS011;19638;49.080;11.896;2023-02-28T06:35:54;14.93;;;7.20;;
33266;SDS011;19638;49.080;11.896;2023-02-28T06:39:57;21.20;;;8.53;;
33266;SDS011;19638;49.080;11.896;2023-02-28T06:44:03;15.20;;;7.57;;
33266;SDS011;19638;49.080;11.896;2023-02-28T06:48:07;16.83;;;7.13;;
33266;SDS011;19638;49.080;11.896;2023-02-28T06:52:11;15.83;;;7.37;;
33266;SDS011;19638;49.080;11.896;2023-02-28T06:56:15;18.63;;;8.23;;
33266;SDS011;19638;49.080;11.896;2023-02-28T07:00:23;14.67;;;7.30;;
33266;SDS011;19638;49.080;11.896;2023-02-28T07:04:27;11.30;;;6.50;;
33266;SDS011;19638;49.080;11.896;2023-02-28T07:08:33;17.93;;;8.30;;
33266;SDS011;19638;49.080;11.896;2023-02-28T07:12:41;12.43;;;5.57;;
33266;SDS011;19638;49.080;11.896;2023-02-28T07:16:46;11.70;;;6.90;;
33266;SDS011;19638;49.080;11.896;2023-02-28T07:20:51;21.13;;;7.77;;
33266;SDS011;19638;49.080;11.896;2023-02-28T07:24:55;17.10;;;8.03;;
33266;SDS011;19638;49.080;11.896;2023-02-28T07:28:58;18.00;;;8.00;;
33266;SDS011;19638;49.080;11.896;2023-02-28T07:33:03;11.10;;;6.90;;
33266;SDS011;19638;49.080;11.896;2023-02-28T07:37:06;13.60;;;5.13;;
33266;SDS011;19638;49.080;11.896;2023-02-28T07:41:09;10.07;;;5.47;;
33266;SDS011;19638;49.080;11.896;2023-02-28T07:45:12;13.73;;;7.27;;
33266;SDS011;19638;49.080;11.896;2023-02-28T07:49:17;13.30;;;7.23;;
33266;SDS011;19638;49.080;11.896;2023-02-28T07:53:20;21.07;;;8.93;;
33266;SDS011;19638;49.080;11.896;2023-02-28T07:57:25;10.57;;;6.50;;
33266;SDS011;19638;49.080;11.896;2023-02-28T08:01:28;15.43;;;6.67;;
33266;SDS011;19638;49.080;11.896;2023-02-28T08:05:39;10.83;;;6.67;;
33266;SDS011;19638;49.080;11.896;2023-02-28T08:09:43;13.90;;;6.00;;
33266;SDS011;19638;49.080;11.896;2023-02-28T08:13:46;14.37;;;6.50;;
33266;SDS011;19638;49.080;11.896;2023-02-28T08:17:52;15.13;;;7.70;;
33266;SDS011;19638;49.080;11.896;2023-02-28T08:22:00;8.23;;;5.70;;
33266;SDS011;19638;49.080;11.896;2023-02-28T08:26:03;16.73;;;8.07;;
33266;SDS011;19638;49.080;11.896;2023-02-28T08:30:07;13.50;;;7.90;;
33266;SDS011;19638;49.080;11.896;2023-02-28T08:34:13;16.80;;;6.17;;
33266;SDS011;19638;49.080;11.896;2023-02-28T08:38:20;14.27;;;6.73;;
33266;SDS011;19638;49.080;11.896;2023-02-28T08:42:23;15.97;;;8.30;;
33266;SDS011;19638;49.080;11.896;2023-02-28T08:46:28;14.57;;;6.40;;
33266;SDS011;19638;49.080;11.896;2023-02-28T08:50:33;13.13;;;6.80;;
33266;SDS011;19638;49.080;11.896;2023-02-28T08:54:40;15.63;;;6.43;;
33266;SDS011;19638;49.080;11.896;2023-02-28T08:58:43;10.80;;;6.30;;
33266;SDS011;19638;49.080;11.896;2023-02-28T09:02:47;14.27;;;8.37;;
33266;SDS011;19638;49.080;11.896;2023-02-28T09:06:51;18.03;;;7.70;;
33266;SDS011;19638;49.080;11.896;2023-02-28T09:10:56;16.40;;;8.30;;
33266;SDS011;19638;49.080;11.896;2023-02-28T09:15:04;11.80;;;6.37;;
33266;SDS011;19638;49.080;11.896;2023-02-28T09:19:14;10.40;;;5.87;;
33266;SDS011;19638;49.080;11.896;2023-02-28T09:23:17;12.23;;;7.30;;
33266;SDS011;19638;49.080;11.896;2023-02-28T09:27:24;18.90;;;8.30;;
33266;SDS011;19638;49.080;11.896;2023-02-28T09:31:30;12.50;;;6.57;;
33266;SDS011;19638;49.080;11.896;2023-02-28T09:35:33;11.70;;;7.13;;
33266;SDS011;19638;49.080;11.896;2023-02-28T09:39:39;7.83;;;5.07;;
33266;SDS011;19638;49.080;11.896;2023-02-28T09:43:45;16.93;;;7.63;;
33266;SDS011;19638;49.080;11.896;2023-02-28T09:47:51;15.40;;;8.77;;
33266;SDS011;19638;49.080;11.896;2023-02-28T09:52:02;19.77;;;9.27;;
33266;SDS011;19638;49.080;11.896;2023-02-28T09:56:11;16.57;;;9.07;;
33266;SDS011;19638;49.080;11.896;2023-02-28T10:00:20;13.77;;;7.30;;
33266;SDS011;19638;49.080;11.896;2023-02-28T10:04:36;13.70;;;7.67;;
33266;SDS011;19638;49.080;11.896;2023-02-28T10:08:56;16.83;;;7.77;;
33266;SDS011;19638;49.080;11.896;2023-02-28T10:13:04;14.40;;;7.20;;
33266;SDS011;19638;49.080;11.896;2023-02-28T10:17:16;10.87;;;6.03;;
33266;SDS011;19638;49.080;11.896;2023-02-28T10:21:24;20.07;;;8.33;;
33266;SDS011;19638;49.080;11.896;2023-02-28T10:25:30;13.80;;;8.00;;
33266;SDS011;19638;49.080;11.896;2023-02-28T10:29:50;20.60;;;8.10;;
33266;SDS011;19638;49.080;11.896;2023-02-28T10:34:01;11.93;;;7.43;;
33266;SDS011;19638;49.080;11.896;2023-02-28T10:38:15;16.47;;;8.20;;
33266;SDS011;19638;49.080;11.896;2023-02-28T10:42:22;10.63;;;6.30;;
33266;SDS011;19638;49.080;11.896;2023-02-28T10:46:27;14.90;;;7.97;;
33266;SDS011;19638;49.080;11.896;2023-02-28T10:50:41;8.80;;;5.80;;
33266;SDS011;19638;49.080;11.896;2023-02-28T10:54:53;16.97;;;7.27;;
33266;SDS011;19638;49.080;11.896;2023-02-28T10:59:28;7.57;;;4.63;;
33266;SDS011;19638;49.080;11.896;2023-02-28T11:03:33;12.33;;;7.00;;
33266;SDS011;19638;49.080;11.896;2023-02-28T11:07:38;22.57;;;7.60;;
33266;SDS011;19638;49.080;11.896;2023-02-28T11:11:53;15.53;;;7.50;;
33266;SDS011;19638;49.080;11.896;2023-02-28T11:15:57;11.67;;;6.73;;
33266;SDS011;19638;49.080;11.896;2023-02-28T11:20:14;13.57;;;6.70;;
33266;SDS011;19638;49.080;11.896;2023-02-28T11:24:26;12.27;;;6.57;;
33266;SDS011;19638;49.080;11.896;2023-02-28T11:28:31;15.67;;;7.97;;
33266;SDS011;19638;49.080;11.896;2023-02-28T11:32:36;15.27;;;7.20;;
33266;SDS011;19638;49.080;11.896;2023-02-28T11:36:41;13.70;;;7.77;;
33266;SDS011;19638;49.080;11.896;2023-02-28T11:40:51;12.47;;;7.17;;
33266;SDS011;19638;49.080;11.896;2023-02-28T11:45:11;13.00;;;6.80;;
33266;SDS011;19638;49.080;11.896;2023-02-28T11:49:29;12.47;;;7.10;;
33266;SDS011;19638;49.080;11.896;2023-02-28T11:53:44;14.93;;;7.87;;
33266;SDS011;19638;49.080;11.896;2023-02-28T11:58:31;14.53;;;7.83;;
33266;SDS011;19638;49.080;11.896;2023-02-28T12:02:51;16.07;;;8.53;;
33266;SDS011;19638;49.080;11.896;2023-02-28T12:07:06;14.43;;;7.83;;
33266;SDS011;19638;49.080;11.896;2023-02-28T12:11:18;16.77;;;8.47;;
33266;SDS011;19638;49.080;11.896;2023-02-28T12:15:47;10.70;;;6.57;;
33266;SDS011;19638;49.080;11.896;2023-02-28T12:19:59;14.73;;;7.93;;
33266;SDS011;19638;49.080;11.896;2023-02-28T12:24:24;25.27;;;9.77;;
33266;SDS011;19638;49.080;11.896;2023-02-28T12:28:57;15.90;;;8.30;;
33266;SDS011;19638;49.080;11.896;2023-02-28T12:33:09;16.80;;;8.53;;
33266;SDS011;19638;49.080;11.896;2023-02-28T12:37:17;14.53;;;7.60;;
33266;SDS011;19638;49.080;11.896;2023-02-28T12:41:27;14.60;;;8.33;;
33266;SDS011;19638;49.080;11.896;2023-02-28T12:45:39;13.83;;;8.03;;
33266;SDS011;19638;49.080;11.896;2023-02-28T12:49:49;14.40;;;7.80;;
33266;SDS011;19638;49.080;11.896;2023-02-28T12:53:58;16.33;;;8.20;;
33266;SDS011;19638;49.080;11.896;2023-02-28T12:58:14;15.40;;;8.47;;
33266;SDS011;19638;49.080;11.896;2023-02-28T13:07:12;17.27;;;8.20;;
33266;SDS011;19638;49.080;11.896;2023-02-28T13:11:31;13.37;;;7.50;;
33266;SDS011;19638;49.080;11.896;2023-02-28T13:15:42;14.47;;;7.77;;
33266;SDS011;19638;49.080;11.896;2023-02-28T13:20:01;14.37;;;7.97;;
33266;SDS011;19638;49.080;11.896;2023-02-28T13:24:07;14.67;;;7.90;;
33266;SDS011;19638;49.080;11.896;2023-02-28T13:28:12;10.97;;;6.33;;
33266;SDS011;19638;49.080;11.896;2023-02-28T13:32:36;13.70;;;6.33;;
33266;SDS011;19638;49.080;11.896;2023-02-28T13:36:40;13.00;;;7.63;;
33266;SDS011;19638;49.080;11.896;2023-02-28T13:40:46;15.60;;;7.70;;
33266;SDS011;19638;49.080;11.896;2023-02-28T13:49:29;15.57;;;8.13;;
33266;SDS011;19638;49.080;11.896;2023-02-28T13:58:15;14.33;;;7.90;;
33266;SDS011;19638;49.080;11.896;2023-02-28T14:03:00;14.00;;;8.10;;
33266;SDS011;19638;49.080;11.896;2023-02-28T14:07:18;16.03;;;9.33;;
33266;SDS011;19638;49.080;11.896;2023-02-28T14:11:27;16.53;;;8.80;;
33266;SDS011;19638;49.080;11.896;2023-02-28T14:15:41;14.70;;;7.70;;
33266;SDS011;19638;49.080;11.896;2023-02-28T14:19:48;12.80;;;7.10;;
33266;SDS011;19638;49.080;11.896;2023-02-28T14:23:58;18.53;;;8.10;;
33266;SDS011;19638;49.080;11.896;2023-02-28T14:28:19;12.83;;;6.70;;
33266;SDS011;19638;49.080;11.896;2023-02-28T14:32:41;12.73;;;6.83;;
33266;SDS011;19638;49.080;11.896;2023-02-28T14:36:50;11.20;;;5.97;;
33266;SDS011;19638;49.080;11.896;2023-02-28T14:41:03;18.27;;;8.30;;
33266;SDS011;19638;49.080;11.896;2023-02-28T14:45:17;13.17;;;8.13;;
33266;SDS011;19638;49.080;11.896;2023-02-28T14:49:26;13.87;;;7.37;;
33266;SDS011;19638;49.080;11.896;2023-02-28T14:53:35;15.83;;;7.73;;
33266;SDS011;19638;49.080;11.896;2023-02-28T14:57:40;13.73;;;8.03;;
33266;SDS011;19638;49.080;11.896;2023-02-28T15:01:50;14.53;;;7.43;;
33266;SDS011;19638;49.080;11.896;2023-02-28T15:05:59;11.23;;;6.87;;
33266;SDS011;19638;49.080;11.896;2023-02-28T15:10:13;14.07;;;7.73;;
33266;SDS011;19638;49.080;11.896;2023-02-28T15:14:21;18.10;;;8.30;;
33266;SDS011;19638;49.080;11.896;2023-02-28T15:18:29;15.83;;;8.03;;
33266;SDS011;19638;49.080;11.896;2023-02-28T15:22:36;11.73;;;7.53;;
33266;SDS011;19638;49.080;11.896;2023-02-28T15:26:42;15.70;;;8.20;;
33266;SDS011;19638;49.080;11.896;2023-02-28T15:30:56;15.57;;;8.20;;
33266;SDS011;19638;49.080;11.896;2023-02-28T15:39:28;14.67;;;8.30;;
33266;SDS011;19638;49.080;11.896;2023-02-28T15:43:32;13.70;;;7.97;;
33266;SDS011;19638;49.080;11.896;2023-02-28T15:47:36;17.30;;;8.20;;
33266;SDS011;19638;49.080;11.896;2023-02-28T15:51:39;14.93;;;8.47;;
33266;SDS011;19638;49.080;11.896;2023-02-28T15:55:44;15.20;;;8.43;;
33266;SDS011;19638;49.080;11.896;2023-02-28T15:59:51;14.53;;;8.20;;
33266;SDS011;19638;49.080;11.896;2023-02-28T16:03:57;19.33;;;8.33;;
33266;SDS011;19638;49.080;11.896;2023-02-28T16:08:11;12.60;;;7.73;;
33266;SDS011;19638;49.080;11.896;2023-02-28T16:12:19;17.57;;;8.43;;
33266;SDS011;19638;49.080;11.896;2023-02-28T16:16:30;16.43;;;9.20;;
33266;SDS011;19638;49.080;11.896;2023-02-28T16:20:37;18.07;;;8.97;;
33266;SDS011;19638;49.080;11.896;2023-02-28T16:24:41;19.13;;;7.83;;
33266;SDS011;19638;49.080;11.896;2023-02-28T16:28:48;18.77;;;9.83;;
33266;SDS011;19638;49.080;11.896;2023-02-28T16:32:55;16.30;;;9.20;;
33266;SDS011;19638;49.080;11.896;2023-02-28T16:37:00;18.33;;;9.03;;
33266;SDS011;19638;49.080;11.896;2023-02-28T16:41:04;24.80;;;10.73;;
33266;SDS011;19638;49.080;11.896;2023-02-28T16:45:16;20.23;;;9.80;;
33266;SDS011;19638;49.080;11.896;2023-02-28T16:49:20;19.30;;;9.90;;
33266;SDS011;19638;49.080;11.896;2023-02-28T16:53:24;22.50;;;10.70;;
33266;SDS011;19638;49.080;11.896;2023-02-28T16:57:29;19.50;;;9.60;;
33266;SDS011;19638;49.080;11.896;2023-02-28T17:01:36;21.10;;;10.67;;
33266;SDS011;19638;49.080;11.896;2023-02-28T17:05:42;25.83;;;11.73;;
33266;SDS011;19638;49.080;11.896;2023-02-28T17:09:45;23.30;;;11.40;;
33266;SDS011;19638;49.080;11.896;2023-02-28T17:13:48;22.77;;;11.50;;
33266;SDS011;19638;49.080;11.896;2023-02-28T17:17:53;21.93;;;11.40;;
33266;SDS011;19638;49.080;11.896;2023-02-28T17:21:56;20.40;;;10.20;;
33266;SDS011;19638;49.080;11.896;2023-02-28T17:25:59;25.73;;;11.50;;
33266;SDS011;19638;49.080;11.896;2023-02-28T17:30:03;19.57;;;9.77;;
33266;SDS011;19638;49.080;11.896;2023-02-28T17:34:17;27.03;;;12.13;;
33266;SDS011;19638;49.080;11.896;2023-02-28T17:38:21;22.73;;;10.97;;
33266;SDS011;19638;49.080;11.896;2023-02-28T17:42:27;17.53;;;9.87;;
33266;SDS011;19638;49.080;11.896;2023-02-28T17:46:30;23.37;;;11.43;;
33266;SDS011;19638;49.080;11.896;2023-02-28T17:50:39;24.03;;;11.57;;
33266;SDS011;19638;49.080;11.896;2023-02-28T17:54:42;24.47;;;11.97;;
33266;SDS011;19638;49.080;11.896;2023-02-28T17:58:46;26.03;;;12.57;;
33266;SDS011;19638;49.080;11.896;2023-02-28T18:02:49;29.10;;;13.47;;
33266;SDS011;19638;49.080;11.896;2023-02-28T18:06:54;33.57;;;14.20;;
33266;SDS011;19638;49.080;11.896;2023-02-28T18:11:02;25.90;;;12.53;;
33266;SDS011;19638;49.080;11.896;2023-02-28T18:15:06;28.67;;;11.80;;
33266;SDS011;19638;49.080;11.896;2023-02-28T18:19:12;25.67;;;12.40;;
33266;SDS011;19638;49.080;11.896;2023-02-28T18:23:22;26.77;;;12.90;;
33266;SDS011;19638;49.080;11.896;2023-02-28T18:27:25;23.90;;;10.90;;
33266;SDS011;19638;49.080;11.896;2023-02-28T18:31:28;32.53;;;14.07;;
33266;SDS011;19638;49.080;11.896;2023-02-28T18:35:33;26.87;;;14.27;;
33266;SDS011;19638;49.080;11.896;2023-02-28T18:39:40;24.10;;;11.70;;
33266;SDS011;19638;49.080;11.896;2023-02-28T18:43:45;31.33;;;14.63;;
33266;SDS011;19638;49.080;11.896;2023-02-28T18:47:48;29.97;;;13.30;;
33266;SDS011;19638;49.080;11.896;2023-02-28T18:51:52;32.13;;;15.03;;
33266;SDS011;19638;49.080;11.896;2023-02-28T18:56:00;29.40;;;14.00;;
33266;SDS011;19638;49.080;11.896;2023-02-28T19:00:03;33.13;;;13.63;;
33266;SDS011;19638;49.080;11.896;2023-02-28T19:04:11;34.70;;;14.07;;
33266;SDS011;19638;49.080;11.896;2023-02-28T19:08:15;27.07;;;12.80;;
33266;SDS011;19638;49.080;11.896;2023-02-28T19:12:20;29.40;;;14.47;;
33266;SDS011;19638;49.080;11.896;2023-02-28T19:16:24;33.53;;;14.37;;
33266;SDS011;19638;49.080;11.896;2023-02-28T19:20:28;33.63;;;14.23;;
33266;SDS011;19638;49.080;11.896;2023-02-28T19:24:34;37.10;;;15.60;;
33266;SDS011;19638;49.080;11.896;2023-02-28T19:28:39;35.53;;;14.53;;
33266;SDS011;19638;49.080;11.896;2023-02-28T19:32:42;37.20;;;16.47;;
33266;SDS011;19638;49.080;11.896;2023-02-28T19:36:51;33.93;;;15.50;;
33266;SDS011;19638;49.080;11.896;2023-02-28T19:41:00;31.33;;;15.20;;
33266;SDS011;19638;49.080;11.896;2023-02-28T19:45:07;31.67;;;16.53;;
33266;SDS011;19638;49.080;11.896;2023-02-28T19:49:15;34.97;;;16.43;;
33266;SDS011;19638;49.080;11.896;2023-02-28T19:53:18;43.03;;;16.13;;
33266;SDS011;19638;49.080;11.896;2023-02-28T19:57:21;33.93;;;17.10;;
33266;SDS011;19638;49.080;11.896;2023-02-28T20:01:38;37.03;;;16.57;;
33266;SDS011;19638;49.080;11.896;2023-02-28T20:05:41;39.00;;;17.10;;
33266;SDS011;19638;49.080;11.896;2023-02-28T20:09:46;35.17;;;15.57;;
33266;SDS011;19638;49.080;11.896;2023-02-28T20:13:51;39.27;;;16.17;;
33266;SDS011;19638;49.080;11.896;2023-02-28T20:18:01;41.77;;;17.87;;
33266;SDS011;19638;49.080;11.896;2023-02-28T20:22:08;41.20;;;16.63;;
33266;SDS011;19638;49.080;11.896;2023-02-28T20:26:12;44.80;;;18.97;;
33266;SDS011;19638;49.080;11.896;2023-02-28T20:30:16;39.63;;;16.27;;
33266;SDS011;19638;49.080;11.896;2023-02-28T20:34:23;38.07;;;15.83;;
33266;SDS011;19638;49.080;11.896;2023-02-28T20:38:30;36.77;;;16.27;;
33266;SDS011;19638;49.080;11.896;2023-02-28T20:42:33;45.67;;;16.53;;
33266;SDS011;19638;49.080;11.896;2023-02-28T20:46:36;32.97;;;14.47;;
33266;SDS011;19638;49.080;11.896;2023-02-28T20:50:47;37.97;;;17.10;;
33266;SDS011;19638;49.080;11.896;2023-02-28T20:54:52;37.33;;;16.07;;
33266;SDS011;19638;49.080;11.896;2023-02-28T20:58:55;39.00;;;15.17;;
33266;SDS011;19638;49.080;11.896;2023-02-28T21:02:58;38.43;;;16.50;;
33266;SDS011;19638;49.080;11.896;2023-02-28T21:07:03;46.10;;;17.93;;
33266;SDS011;19638;49.080;11.896;2023-02-28T21:11:07;46.50;;;18.13;;
33266;SDS011;19638;49.080;11.896;2023-02-28T21:15:11;40.43;;;17.87;;
33266;SDS011;19638;49.080;11.896;2023-02-28T21:19:14;33.43;;;15.87;;
33266;SDS011;19638;49.080;11.896;2023-02-28T21:23:20;37.87;;;17.43;;
33266;SDS011;19638;49.080;11.896;2023-02-28T21:27:23;39.07;;;17.73;;
33266;SDS011;19638;49.080;11.896;2023-02-28T21:31:31;40.13;;;17.73;;
33266;SDS011;19638;49.080;11.896;2023-02-28T21:35:35;39.03;;;16.10;;
33266;SDS011;19638;49.080;11.896;2023-02-28T21:39:40;36.53;;;16.80;;
33266;SDS011;19638;49.080;11.896;2023-02-28T21:43:43;42.90;;;18.17;;
33266;SDS011;19638;49.080;11.896;2023-02-28T21:47:49;38.53;;;16.07;;
33266;SDS011;19638;49.080;11.896;2023-02-28T21:51:52;40.03;;;17.30;;
33266;SDS011;19638;49.080;11.896;2023-02-28T21:55:59;41.30;;;17.30;;
33266;SDS011;19638;49.080;11.896;2023-02-28T22:00:06;42.63;;;16.60;;
33266;SDS011;19638;49.080;11.896;2023-02-28T22:04:14;46.20;;;17.43;;
33266;SDS011;19638;49.080;11.896;2023-02-28T22:08:21;38.93;;;17.47;;
33266;SDS011;19638;49.080;11.896;2023-02-28T22:12:34;35.63;;;16.43;;
33266;SDS011;19638;49.080;11.896;2023-02-28T22:16:37;36.37;;;16.03;;
33266;SDS011;19638;49.080;11.896;2023-02-28T22:20:58;38.23;;;16.57;;
33266;SDS011;19638;49.080;11.896;2023-02-28T22:25:06;37.97;;;18.40;;
33266;SDS011;19638;49.080;11.896;2023-02-28T22:29:12;32.50;;;14.30;;
33266;SDS011;19638;49.080;11.896;2023-02-28T22:33:15;32.57;;;13.87;;
33266;SDS011;19638;49.080;11.896;2023-02-28T22:37:19;39.60;;;15.47;;
33266;SDS011;19638;49.080;11.896;2023-02-28T22:41:22;34.00;;;14.73;;
33266;SDS011;19638;49.080;11.896;2023-02-28T22:45:30;38.40;;;15.03;;
33266;SDS011;19638;49.080;11.896;2023-02-28T22:49:39;57.73;;;20.27;;
33266;SDS011;19638;49.080;11.896;2023-02-28T22:53:45;50.03;;;18.27;;
33266;SDS011;19638;49.080;11.896;2023-02-28T22:57:49;45.63;;;18.63;;
33266;SDS011;19638;49.080;11.896;2023-02-28T23:01:56;40.77;;;16.63;;
33266;SDS011;19638;49.080;11.896;2023-02-28T23:06:03;37.50;;;16.67;;
33266;SDS011;19638;49.080;11.896;2023-02-28T23:10:15;37.20;;;16.37;;
33266;SDS011;19638;49.080;11.896;2023-02-28T23:14:19;38.40;;;16.53;;
33266;SDS011;19638;49.080;11.896;2023-02-28T23:18:26;35.00;;;15.57;;
33266;SDS011;19638;49.080;11.896;2023-02-28T23:22:30;38.63;;;16.20;;
33266;SDS011;19638;49.080;11.896;2023-02-28T23:26:34;29.53;;;12.87;;
33266;SDS011;19638;49.080;11.896;2023-02-28T23:30:38;39.00;;;17.33;;
33266;SDS011;19638;49.080;11.896;2023-02-28T23:34:46;30.30;;;14.60;;
33266;SDS011;19638;49.080;11.896;2023-02-28T23:38:50;29.17;;;13.93;;
33266;SDS011;19638;49.080;11.896;2023-02-28T23:42:53;30.53;;;13.07;;
33266;SDS011;19638;49.080;11.896;2023-02-28T23:46:56;36.50;;;17.13;;
33266;SDS011;19638;49.080;11.896;2023-02-28T23:51:03;40.93;;;18.23;;
33266;SDS011;19638;49.080;11.896;2023-02-28T23:55:09;36.60;;;15.27;;
33266;SDS011;19638;49.080;11.896;2023-02-28T23:59:15;36.27;;;14.40;;
